Map

Track Data

SID SEASON NUMBER BASIN SUBBASIN NAME ISO_TIME NATURE LAT LON WMO_WIND WMO_PRES WMO_AGENCY TRACK_TYPE DIST2LAND LANDFALL IFLAG USA_AGENCY USA_ATCF_ID USA_LAT USA_LON USA_RECORD USA_STATUS USA_WIND USA_PRES USA_SSHS USA_R34_NE USA_R34_SE USA_R34_SW USA_R34_NW USA_R50_NE USA_R50_SE USA_R50_SW USA_R50_NW USA_R64_NE USA_R64_SE USA_R64_SW USA_R64_NW USA_POCI USA_ROCI USA_RMW USA_EYE TOKYO_LAT TOKYO_LON TOKYO_GRADE TOKYO_WIND TOKYO_PRES TOKYO_R50_DIR TOKYO_R50_LONG TOKYO_R50_SHORT TOKYO_R30_DIR TOKYO_R30_LONG TOKYO_R30_SHORT TOKYO_LAND CMA_LAT CMA_LON CMA_CAT CMA_WIND CMA_PRES HKO_LAT HKO_LON HKO_CAT HKO_WIND HKO_PRES NEWDELHI_LAT NEWDELHI_LON NEWDELHI_GRADE NEWDELHI_WIND NEWDELHI_PRES NEWDELHI_CI NEWDELHI_DP NEWDELHI_POCI REUNION_LAT REUNION_LON REUNION_TYPE REUNION_WIND REUNION_PRES REUNION_TNUM REUNION_CI REUNION_RMW REUNION_R34_NE REUNION_R34_SE REUNION_R34_SW REUNION_R34_NW REUNION_R50_NE REUNION_R50_SE REUNION_R50_SW REUNION_R50_NW REUNION_R64_NE REUNION_R64_SE REUNION_R64_SW REUNION_R64_NW BOM_LAT BOM_LON BOM_TYPE BOM_WIND BOM_PRES BOM_TNUM BOM_CI BOM_RMW BOM_R34_NE BOM_R34_SE BOM_R34_SW BOM_R34_NW BOM_R50_NE BOM_R50_SE BOM_R50_SW BOM_R50_NW BOM_R64_NE BOM_R64_SE BOM_R64_SW BOM_R64_NW BOM_ROCI BOM_POCI BOM_EYE BOM_POS_METHOD BOM_PRES_METHOD NADI_LAT NADI_LON NADI_CAT NADI_WIND NADI_PRES WELLINGTON_LAT WELLINGTON_LON WELLINGTON_WIND WELLINGTON_PRES DS824_LAT DS824_LON DS824_STAGE DS824_WIND DS824_PRES TD9636_LAT TD9636_LON TD9636_STAGE TD9636_WIND TD9636_PRES TD9635_LAT TD9635_LON TD9635_WIND TD9635_PRES TD9635_ROCI NEUMANN_LAT NEUMANN_LON NEUMANN_CLASS NEUMANN_WIND NEUMANN_PRES MLC_LAT MLC_LON MLC_CLASS MLC_WIND MLC_PRES USA_GUST BOM_GUST BOM_GUST_PER REUNION_GUST REUNION_GUST_PER USA_SEAHGT USA_SEARAD_NE USA_SEARAD_SE USA_SEARAD_SW USA_SEARAD_NW STORM_SPEED STORM_DIR
1894225N23088 1894 34 NI BB NOT_NAMED 1894-08-13 00:00:00 TS 22.9000 87.6000 main 0 0 _________O____ -1 22.9000 87.6000 TC 30 3 302
1894225N23088 1894 34 NI BB NOT_NAMED 1894-08-13 03:00:00 TS 22.9733 87.4734 main 0 0 _________PO___ -1 23.0100 87.4101 TC 30 22.9000 87.6000 1 3 297
1894225N23088 1894 34 NI BB NOT_NAMED 1894-08-13 06:00:00 TS 23.0532 87.2738 main 0 0 _________OP___ -1 23.1000 87.2000 TC 30 22.9830 87.3846 1 4 290
1894225N23088 1894 34 NI BB NOT_NAMED 1894-08-13 09:00:00 TS 23.1168 87.0465 main 0 0 _________PP___ -1 23.1575 86.9575 TC 30 23.0626 87.1653 1 4 285
1894225N23088 1894 34 NI BB NOT_NAMED 1894-08-13 12:00:00 TS 23.1680 86.8191 main 0 0 _________OP___ -1 23.2000 86.7000 TC 30 23.1360 86.9383 1 4 284
1894225N23088 1894 34 NI BB NOT_NAMED 1894-08-13 15:00:00 TS 23.2250 86.5750 main 0 0 _________PO___ -1 23.2500 86.4500 TC 30 23.2000 86.7000 1 5 283
1894225N23088 1894 34 NI BB NOT_NAMED 1894-08-13 18:00:00 TS 23.2766 86.3245 main 0 0 _________OP___ -1 23.3000 86.2000 TC 30 23.2531 86.4489 1 5 282
1894225N23088 1894 34 NI BB NOT_NAMED 1894-08-13 21:00:00 TS 23.3213 86.0674 main 0 0 _________PP___ -1 23.3425 85.9425 TC 30 23.3000 86.1923 1 5 282
1894225N23088 1894 34 NI BB NOT_NAMED 1894-08-14 00:00:00 TS 23.3735 85.8198 main 0 0 _________OP___ -1 23.4000 85.7000 TC 30 23.3469 85.9396 1 5 287
1894225N23088 1894 34 NI BB NOT_NAMED 1894-08-14 03:00:00 TS 23.4500 85.5963 main 0 0 _________PO___ -1 23.4999 85.4925 TC 30 23.4000 85.7000 1 4 293
1894225N23088 1894 34 NI BB NOT_NAMED 1894-08-14 06:00:00 TS 23.5358 85.3928 main 0 0 _________OP___ -1 23.6000 85.3000 TC 30 23.4717 85.4856 1 4 292
1894225N23088 1894 34 NI BB NOT_NAMED 1894-08-14 09:00:00 TS 23.6036 85.1925 main 0 0 _________PP___ -1 23.6575 85.1000 TC 30 23.5498 85.2850 1 4 290
1894225N23088 1894 34 NI BB NOT_NAMED 1894-08-14 12:00:00 TS 23.6640 84.9959 main 0 0 _________OP___ -1 23.7000 84.9000 TC 30 23.6280 85.0919 1 4 289
1894225N23088 1894 34 NI BB NOT_NAMED 1894-08-14 15:00:00 TS 23.7250 84.8000 main 0 0 _________PO___ -1 23.7500 84.7000 TC 30 23.7000 84.9000 1 4 288
1894225N23088 1894 34 NI BB NOT_NAMED 1894-08-14 18:00:00 TS 23.7785 84.6020 main 0 0 _________OP___ -1 23.8000 84.5000 TC 30 23.7571 84.7039 1 4 286
1894225N23088 1894 34 NI BB NOT_NAMED 1894-08-14 21:00:00 TS 23.8286 84.4074 main 0 0 _________PP___ -1 23.8499 84.3075 TC 30 23.8073 84.5074 1 4 285
1894225N23088 1894 34 NI BB NOT_NAMED 1894-08-15 00:00:00 TS 23.8770 84.2035 main 0 0 _________OP___ -1 23.9000 84.1000 TC 30 23.8539 84.3071 1 4 284
1894225N23088 1894 34 NI BB NOT_NAMED 1894-08-15 03:00:00 TS 23.9250 83.9750 main 0 0 _________PO___ -1 23.9500 83.8500 TC 30 23.9000 84.1000 1 4 283
1894225N23088 1894 34 NI BB NOT_NAMED 1894-08-15 06:00:00 TS 23.9750 83.7350 main 0 0 _________OP___ -1 24.0000 83.6000 TC 30 23.9501 83.8700 1 4 283
1894225N23088 1894 34 NI BB NOT_NAMED 1894-08-15 09:00:00 TS 24.0250 83.5100 main 0 0 _________PP___ -1 24.0500 83.3850 TC 30 24.0001 83.6350 1 4 284
1894225N23088 1894 34 NI BB NOT_NAMED 1894-08-15 12:00:00 TS 24.0750 83.3037 main 0 0 _________OP___ -1 24.1000 83.2000 TC 30 24.0501 83.4075 1 4 286
1894225N23088 1894 34 NI BB NOT_NAMED 1894-08-15 15:00:00 TS 24.1250 83.1212 main 0 0 _________PO___ -1 24.1500 83.0425 TC 30 24.1000 83.2000 1 3 288
1894225N23088 1894 34 NI BB NOT_NAMED 1894-08-15 18:00:00 TS 24.1748 82.9743 main 0 0 _________OP___ -1 24.2000 82.9000 TC 30 24.1497 83.0486 1 3 291
1894225N23088 1894 34 NI BB NOT_NAMED 1894-08-15 21:00:00 TS 24.2247 82.8399 main 0 0 _________PP___ -1 24.2499 82.7650 TC 30 24.1995 82.9148 1 3 291
1894225N23088 1894 34 NI BB NOT_NAMED 1894-08-16 00:00:00 TS 24.2748 82.6868 main 0 0 _________OP___ -1 24.3000 82.6000 TC 30 24.2496 82.7736 1 3 287
1894225N23088 1894 34 NI BB NOT_NAMED 1894-08-16 03:00:00 TS 24.3250 82.4862 main 0 0 _________PO___ -1 24.3500 82.3725 TC 30 24.3000 82.6000 1 4 284
1894225N23088 1894 34 NI BB NOT_NAMED 1894-08-16 06:00:00 TS 24.3751 82.2284 main 0 0 _________OP___ -1 24.4000 82.1000 TC 30 24.3502 82.3569 1 5 281
1894225N23088 1894 34 NI BB NOT_NAMED 1894-08-16 09:00:00 TS 24.4251 81.9400 main 0 0 _________PP___ -1 24.4500 81.8000 TC 30 24.4002 82.0800 1 5 281
1894225N23088 1894 34 NI BB NOT_NAMED 1894-08-16 12:00:00 TS 24.4751 81.6441 main 0 0 _________OP___ -1 24.5000 81.5000 TC 30 24.4501 81.7881 1 5 281
1894225N23088 1894 34 NI BB NOT_NAMED 1894-08-16 15:00:00 TS 24.5250 81.3712 main 0 0 _________PO___ -1 24.5499 81.2425 TC 30 24.5000 81.5000 1 5 282
1894225N23088 1894 34 NI BB NOT_NAMED 1894-08-16 18:00:00 TS 24.5750 81.1092 main 0 0 _________OP___ -1 24.6000 81.0000 TC 30 24.5500 81.2184 1 5 282
1894225N23088 1894 34 NI BB NOT_NAMED 1894-08-16 21:00:00 TS 24.6251 80.8375 main 0 0 _________PP___ -1 24.6500 80.7275 TC 30 24.6001 80.9475 1 5 282
1894225N23088 1894 34 NI BB NOT_NAMED 1894-08-17 00:00:00 TS 24.6750 80.6014 main 0 0 _________OP___ -1 24.7000 80.5000 TC 30 24.6501 80.7028 1 4 285
1894225N23088 1894 34 NI BB NOT_NAMED 1894-08-17 03:00:00 TS 24.7250 80.4387 main 0 0 _________PO___ -1 24.7499 80.3775 TC 30 24.7000 80.5000 1 3 292
1894225N23088 1894 34 NI BB NOT_NAMED 1894-08-17 06:00:00 TS 24.7769 80.3304 main 0 0 _________OP___ -1 24.8000 80.3000 TC 30 24.7538 80.3608 1 2 299
1894225N23088 1894 34 NI BB NOT_NAMED 1894-08-17 09:00:00 TS 24.8286 80.2312 main 0 0 _________PP___ -1 24.8500 80.2000 TC 30 24.8072 80.2624 1 2 300
1894225N23088 1894 34 NI BB NOT_NAMED 1894-08-17 12:00:00 TS 24.8785 80.1414 main 0 0 _________OP___ -1 24.9000 80.1000 TC 30 24.8570 80.1827 1 2 302
1894225N23088 1894 34 NI BB NOT_NAMED 1894-08-17 15:00:00 TS 24.9287 80.0538 main 0 0 _________PO___ -1 24.9575 80.0075 TC 30 24.9000 80.1000 1 2 297
1894225N23088 1894 34 NI BB NOT_NAMED 1894-08-17 18:00:00 TS 24.9622 79.9554 main 0 0 _________OP___ -1 25.0000 79.9000 TC 30 24.9339 79.9969 1 2 284
1894225N23088 1894 34 NI BB NOT_NAMED 1894-08-17 21:00:00 TS 24.9802 79.8290 main 0 0 _________PP___ -1 25.0100 79.7600 TC 30 24.9602 79.8751 1 2 276
1894225N23088 1894 34 NI BB NOT_NAMED 1894-08-18 00:00:00 TS 24.9876 79.6938 main 0 0 _________OP___ -1 25.0000 79.6000 TC 30 24.9814 79.7407 1 2 275
1894225N23088 1894 34 NI BB NOT_NAMED 1894-08-18 03:00:00 NR 25.0000 79.6000 main 0 __________O___ -1 TC 25.0000 79.6000 1 2 278

About IBTrACS Database

This database is a web-friendly format of International Best Track Archive for Climate Stewardship (IBTrACS), a global best track data archive curated by NOAA dating back to 1842.

Updated: 2021-12-06